createdAt,value
2023-05-20T00:00:56.782Z,1.80
2023-05-20T00:03:24.835Z,2.00
2023-05-20T00:05:54.440Z,1.80
2023-05-20T00:08:22.319Z,1.80
2023-05-20T00:10:50.175Z,1.77
2023-05-20T00:13:18.196Z,1.70
2023-05-20T00:15:46.456Z,1.90
2023-05-20T00:18:14.360Z,1.90
2023-05-20T00:20:42.236Z,1.70
2023-05-20T00:23:11.528Z,1.90
2023-05-20T00:25:39.450Z,1.95
2023-05-20T00:28:07.893Z,1.77
2023-05-20T00:30:35.885Z,1.90
2023-05-20T00:33:03.850Z,1.92
2023-05-20T00:35:31.912Z,1.73
2023-05-20T00:38:00.027Z,2.00
2023-05-20T00:40:29.542Z,1.80
2023-05-20T00:42:57.596Z,2.00
2023-05-20T00:45:26.079Z,1.70
2023-05-20T00:47:57.255Z,2.20
2023-05-20T00:50:25.295Z,2.30
2023-05-20T00:52:55.490Z,2.05
2023-05-20T00:55:23.710Z,2.28
2023-05-20T00:57:54.249Z,2.13
2023-05-20T01:00:22.229Z,2.20
2023-05-20T01:02:50.333Z,2.15
2023-05-20T01:05:18.372Z,2.20
2023-05-20T01:07:46.496Z,2.55
2023-05-20T01:10:14.644Z,4.43
2023-05-20T01:12:47.498Z,6.65
2023-05-20T01:15:18.786Z,4.25
2023-05-20T01:17:48.291Z,4.55
2023-05-20T01:20:16.610Z,4.68
2023-05-20T01:22:55.594Z,3.80
2023-05-20T01:25:25.109Z,3.80
2023-05-20T01:27:54.299Z,4.07
2023-05-20T01:30:23.806Z,3.83
2023-05-20T01:32:55.078Z,3.83
2023-05-20T01:35:24.157Z,3.17
2023-05-20T01:37:54.910Z,3.95
2023-05-20T01:40:24.621Z,3.13
2023-05-20T01:42:55.200Z,3.45
2023-05-20T01:45:25.522Z,3.15
2023-05-20T01:47:53.653Z,3.00
2023-05-20T01:50:21.544Z,2.90
2023-05-20T01:52:49.491Z,2.67
2023-05-20T01:55:18.917Z,2.88
2023-05-20T01:57:47.182Z,2.35
2023-05-20T02:00:15.749Z,2.47
2023-05-20T02:02:45.753Z,2.40
2023-05-20T02:05:14.713Z,2.40
2023-05-20T02:07:44.338Z,2.40
2023-05-20T02:10:12.700Z,2.50
2023-05-20T02:12:41.997Z,2.30
2023-05-20T02:15:11.175Z,2.42
2023-05-20T02:17:39.843Z,2.40
2023-05-20T02:20:10.251Z,2.28
2023-05-20T02:22:38.156Z,2.30
2023-05-20T02:25:06.882Z,2.50
2023-05-20T02:27:34.840Z,2.25
2023-05-20T02:30:04.264Z,2.35
2023-05-20T02:32:33.582Z,2.55
2023-05-20T02:35:01.850Z,2.65
2023-05-20T02:37:29.939Z,2.53
2023-05-20T02:40:10.301Z,2.80
2023-05-20T02:42:39.954Z,2.45
2023-05-20T02:45:10.572Z,2.50
2023-05-20T02:47:39.755Z,2.70
2023-05-20T02:50:08.936Z,2.70
2023-05-20T02:52:38.081Z,2.35
2023-05-20T02:55:07.720Z,2.90
2023-05-20T02:57:38.207Z,2.60
2023-05-20T03:00:11.495Z,2.47
2023-05-20T03:02:39.547Z,2.80
2023-05-20T03:05:09.736Z,2.58
2023-05-20T03:07:37.740Z,2.53
2023-05-20T03:10:09.375Z,2.60
2023-05-20T03:12:39.413Z,2.30
2023-05-20T03:15:10.787Z,2.60
2023-05-20T03:17:38.768Z,2.65
2023-05-20T03:20:08.243Z,2.38
2023-05-20T03:22:36.230Z,2.53
2023-05-20T03:25:05.431Z,2.92
2023-05-20T03:27:34.514Z,2.67
2023-05-20T03:30:02.633Z,2.65
2023-05-20T03:32:32.439Z,2.67
2023-05-20T03:35:00.370Z,3.00
2023-05-20T03:37:28.608Z,3.60
2023-05-20T03:39:57.543Z,3.55
2023-05-20T03:42:25.992Z,5.10
2023-05-20T03:44:54.124Z,3.00
2023-05-20T03:47:22.150Z,3.50
2023-05-20T03:49:51.973Z,3.67
2023-05-20T03:52:19.911Z,3.35
2023-05-20T03:54:48.064Z,3.50
2023-05-20T03:57:16.394Z,3.20
2023-05-20T03:59:44.351Z,3.25
2023-05-20T04:02:12.496Z,3.75
2023-05-20T04:04:43.020Z,4.13
2023-05-20T04:07:12.578Z,4.10
2023-05-20T04:09:41.260Z,4.80
2023-05-20T04:12:09.125Z,7.45
2023-05-20T04:14:37.084Z,5.38
2023-05-20T04:17:06.050Z,5.05
2023-05-20T04:19:34.859Z,4.72
2023-05-20T04:22:02.957Z,4.65
2023-05-20T04:24:33.431Z,3.35
2023-05-20T04:27:02.102Z,4.00
2023-05-20T04:29:30.334Z,3.45
2023-05-20T04:31:58.808Z,3.90
2023-05-20T04:34:27.040Z,3.42
2023-05-20T04:36:55.427Z,11.43
2023-05-20T04:39:24.989Z,7.47
2023-05-20T04:41:55.849Z,4.40
2023-05-20T04:44:24.726Z,3.58
2023-05-20T04:46:52.773Z,3.85
2023-05-20T04:49:20.844Z,3.50
2023-05-20T04:51:50.006Z,3.75
2023-05-20T04:54:20.343Z,3.40
2023-05-20T04:56:48.636Z,3.70
2023-05-20T04:59:18.020Z,3.72
2023-05-20T05:01:46.132Z,3.70
2023-05-20T05:04:14.116Z,3.42
2023-05-20T05:06:42.399Z,3.22
2023-05-20T05:09:10.965Z,3.17
2023-05-20T05:11:42.621Z,3.00
2023-05-20T05:14:10.641Z,2.90
2023-05-20T05:16:39.956Z,2.72
2023-05-20T05:19:08.767Z,2.80
2023-05-20T05:21:39.699Z,3.03
2023-05-20T05:24:08.377Z,2.75
2023-05-20T05:26:36.876Z,5.30
2023-05-20T05:29:04.761Z,4.85
2023-05-20T05:31:33.421Z,3.63
2023-05-20T05:34:03.114Z,3.60
2023-05-20T05:36:34.888Z,3.35
2023-05-20T05:39:03.328Z,3.10
2023-05-20T05:41:32.578Z,2.80
2023-05-20T05:44:00.840Z,3.05
2023-05-20T05:46:29.751Z,2.78
2023-05-20T05:48:59.017Z,2.92
2023-05-20T05:51:29.138Z,2.92
2023-05-20T05:53:58.279Z,2.92
2023-05-20T05:56:26.209Z,2.80
2023-05-20T05:58:54.269Z,2.90
2023-05-20T06:01:22.356Z,2.70
2023-05-20T06:03:50.598Z,2.83
2023-05-20T06:06:18.565Z,2.97
2023-05-20T06:08:47.950Z,2.80
2023-05-20T06:11:16.689Z,2.65
2023-05-20T06:13:44.630Z,2.70
2023-05-20T06:16:12.670Z,3.25
2023-05-20T06:18:40.712Z,3.60
2023-05-20T06:21:08.703Z,2.70
2023-05-20T06:23:36.742Z,2.60
2023-05-20T06:26:08.300Z,2.80
2023-05-20T06:28:37.382Z,2.42
2023-05-20T06:31:06.197Z,2.50
2023-05-20T06:33:36.675Z,2.45
2023-05-20T06:36:09.204Z,2.40
2023-05-20T06:38:37.234Z,2.65
2023-05-20T06:41:07.879Z,2.58
2023-05-20T06:43:35.836Z,2.47
2023-05-20T06:46:11.391Z,3.22
2023-05-20T06:48:44.389Z,2.60
2023-05-20T06:51:12.871Z,2.40
2023-05-20T06:53:41.229Z,2.50
2023-05-20T06:56:10.558Z,2.60
2023-05-20T06:58:38.750Z,2.40
2023-05-20T07:01:06.706Z,2.60
2023-05-20T07:03:35.505Z,2.25
2023-05-20T07:06:03.541Z,2.40
2023-05-20T07:08:32.044Z,2.25
2023-05-20T07:11:00.347Z,2.47
2023-05-20T07:13:31.695Z,2.38
2023-05-20T07:16:00.094Z,2.40
2023-05-20T07:18:28.702Z,2.50
2023-05-20T07:20:59.162Z,2.40
2023-05-20T07:23:35.428Z,2.33
2023-05-20T07:26:03.714Z,2.50
2023-05-20T07:28:33.131Z,2.33
2023-05-20T07:31:01.056Z,2.20
2023-05-20T07:33:30.758Z,2.47
2023-05-20T07:35:59.751Z,2.40
2023-05-20T07:38:27.849Z,2.30
2023-05-20T07:41:00.294Z,2.50
2023-05-20T07:43:30.419Z,2.50
2023-05-20T07:46:00.441Z,2.40
2023-05-20T07:48:28.428Z,2.50
2023-05-20T07:50:57.290Z,2.70
2023-05-20T07:53:25.349Z,2.30
2023-05-20T07:55:54.193Z,2.50
2023-05-20T07:58:22.560Z,2.63
2023-05-20T08:00:51.466Z,2.42
2023-05-20T08:03:22.324Z,2.28
2023-05-20T08:06:05.120Z,2.22
2023-05-20T08:08:33.304Z,2.50
2023-05-20T08:11:06.888Z,2.30
2023-05-20T08:13:34.919Z,2.20
2023-05-20T08:16:04.959Z,2.40
2023-05-20T08:18:36.584Z,2.47
2023-05-20T08:21:07.930Z,2.33
2023-05-20T08:23:40.167Z,2.40
2023-05-20T08:26:09.067Z,2.70
2023-05-20T08:28:41.472Z,2.42
2023-05-20T08:31:09.769Z,2.40
2023-05-20T08:33:39.293Z,2.40
2023-05-20T08:36:08.326Z,2.47
2023-05-20T08:38:36.589Z,2.58
2023-05-20T08:41:04.635Z,2.35
2023-05-20T08:43:33.619Z,2.30
2023-05-20T08:46:06.451Z,2.30
2023-05-20T08:48:36.922Z,2.15
2023-05-20T08:51:09.604Z,2.45
2023-05-20T08:53:37.664Z,2.30
2023-05-20T08:56:06.313Z,2.33
2023-05-20T08:58:34.202Z,2.53
2023-05-20T09:01:02.365Z,2.40
2023-05-20T09:03:30.591Z,2.33
2023-05-20T09:06:07.368Z,2.10
2023-05-20T09:08:35.501Z,2.40
2023-05-20T09:11:03.654Z,2.00
2023-05-20T09:13:32.705Z,2.30
2023-05-20T09:16:02.025Z,2.30
2023-05-20T09:18:30.483Z,2.28
2023-05-20T09:20:59.029Z,2.30
2023-05-20T09:23:30.804Z,2.55
2023-05-20T09:26:02.277Z,2.42
2023-05-20T09:28:30.336Z,2.17
2023-05-20T09:30:59.435Z,2.20
2023-05-20T09:33:29.916Z,2.30
2023-05-20T09:36:05.373Z,2.13
2023-05-20T09:38:39.633Z,2.10
2023-05-20T09:41:09.429Z,2.45
2023-05-20T09:43:37.978Z,2.08
2023-05-20T09:46:06.753Z,2.10
2023-05-20T09:48:37.776Z,2.20
2023-05-20T09:51:07.784Z,2.28
2023-05-20T09:53:37.863Z,2.42
2023-05-20T09:56:06.475Z,2.20
2023-05-20T09:58:36.996Z,2.15
2023-05-20T10:01:05.329Z,2.50
2023-05-20T10:03:34.642Z,2.53
2023-05-20T10:06:24.762Z,2.28
2023-05-20T10:09:06.585Z,2.30
2023-05-20T10:11:41.457Z,2.50
2023-05-20T10:16:50.702Z,2.90
2023-05-20T10:19:29.106Z,2.70
2023-05-20T10:22:02.351Z,2.45
2023-05-20T10:24:33.848Z,2.55
2023-05-20T10:27:04.334Z,2.90
2023-05-20T10:29:44.249Z,2.80
2023-05-20T10:32:12.397Z,2.58
2023-05-20T10:34:48.169Z,2.63
2023-05-20T10:37:25.740Z,2.88
2023-05-20T10:40:05.131Z,2.78
2023-05-20T10:42:33.049Z,2.80
2023-05-20T10:45:01.020Z,3.10
2023-05-20T10:47:29.097Z,2.80
2023-05-20T10:49:58.087Z,2.90
2023-05-20T10:52:26.689Z,2.80
2023-05-20T10:54:58.675Z,2.70
2023-05-20T10:57:28.313Z,3.10
2023-05-20T10:59:56.916Z,2.92
2023-05-20T11:02:27.185Z,2.80
2023-05-20T11:04:57.567Z,3.13
2023-05-20T11:07:29.411Z,3.10
2023-05-20T11:09:58.838Z,3.08
2023-05-20T11:12:28.155Z,2.78
2023-05-20T11:14:56.433Z,2.72
2023-05-20T11:17:24.549Z,3.10
2023-05-20T11:19:52.607Z,3.05
2023-05-20T11:22:20.637Z,2.72
2023-05-20T11:24:48.548Z,3.17
2023-05-20T11:27:17.951Z,2.95
2023-05-20T11:29:45.944Z,2.83
2023-05-20T11:32:14.122Z,3.33
2023-05-20T11:34:42.706Z,3.20
2023-05-20T11:37:12.202Z,3.22
2023-05-20T11:39:40.345Z,3.30
2023-05-20T11:42:08.445Z,2.85
2023-05-20T11:44:38.471Z,2.83
2023-05-20T11:47:06.852Z,3.08
2023-05-20T11:49:41.099Z,3.25
2023-05-20T11:52:11.146Z,3.23
2023-05-20T11:54:39.155Z,2.88
2023-05-20T11:57:07.530Z,2.95
2023-05-20T11:59:37.680Z,3.20
2023-05-20T12:02:05.785Z,3.25
2023-05-20T12:04:33.842Z,2.92
2023-05-20T12:07:04.068Z,3.30
2023-05-20T12:09:31.955Z,3.40
2023-05-20T12:11:59.918Z,3.20
2023-05-20T12:14:27.850Z,3.10
2023-05-20T12:16:57.115Z,3.30
2023-05-20T12:19:25.103Z,3.00
2023-05-20T12:21:53.424Z,2.95
2023-05-20T12:24:21.326Z,2.78
2023-05-20T12:26:49.223Z,2.85
2023-05-20T12:29:17.163Z,3.00
2023-05-20T12:31:45.155Z,2.88
2023-05-20T12:34:14.411Z,3.38
2023-05-20T12:36:42.473Z,2.80
2023-05-20T12:39:11.067Z,3.00
2023-05-20T12:41:39.186Z,2.80
2023-05-20T12:44:07.287Z,2.78
2023-05-20T12:46:36.246Z,3.00
2023-05-20T12:49:04.401Z,2.60
2023-05-20T12:51:33.752Z,2.85
2023-05-20T12:54:01.624Z,3.33
2023-05-20T12:56:30.533Z,2.80
2023-05-20T12:58:58.627Z,2.75
2023-05-20T13:01:26.644Z,3.15
2023-05-20T13:03:55.455Z,3.10
2023-05-20T13:06:23.521Z,3.10
2023-05-20T13:08:52.888Z,2.97
2023-05-20T13:11:21.703Z,2.60
2023-05-20T13:13:49.772Z,2.80
2023-05-20T13:16:18.221Z,2.97
2023-05-20T13:18:46.598Z,2.60
2023-05-20T13:21:14.554Z,3.08
2023-05-20T13:23:43.344Z,2.90
2023-05-20T13:26:12.832Z,2.85
2023-05-20T13:28:41.800Z,3.10
2023-05-20T13:31:09.747Z,3.22
2023-05-20T13:33:37.717Z,3.40
2023-05-20T13:36:05.968Z,2.70
2023-05-20T13:38:35.222Z,3.15
2023-05-20T13:41:04.533Z,3.30
2023-05-20T13:43:34.271Z,3.10
2023-05-20T13:46:02.351Z,3.17
2023-05-20T13:48:30.566Z,3.13
2023-05-20T13:50:58.618Z,3.40
2023-05-20T13:53:26.531Z,3.15
2023-05-20T13:55:54.728Z,3.40
2023-05-20T13:58:22.650Z,3.08
2023-05-20T14:00:52.149Z,3.67
2023-05-20T14:03:20.357Z,3.33
2023-05-20T14:05:48.425Z,3.13
2023-05-20T14:08:16.376Z,3.20
2023-05-20T14:10:44.274Z,3.00
2023-05-20T14:13:12.327Z,3.10
2023-05-20T14:15:40.320Z,2.80
2023-05-20T14:18:09.701Z,2.85
2023-05-20T14:20:39.325Z,3.22
2023-05-20T14:23:07.230Z,3.00
2023-05-20T14:25:35.317Z,3.10
2023-05-20T14:28:03.244Z,2.90
2023-05-20T14:30:31.216Z,3.40
2023-05-20T14:32:59.165Z,3.28
2023-05-20T14:35:28.624Z,3.10
2023-05-20T14:37:56.550Z,3.15
2023-05-20T14:40:49.229Z,2.95
2023-05-20T14:43:17.401Z,2.95
2023-05-20T14:45:46.687Z,3.10
2023-05-20T14:48:14.708Z,3.08
2023-05-20T14:50:44.161Z,3.00
2023-05-20T14:53:12.176Z,3.20
2023-05-20T14:55:40.115Z,3.30
2023-05-20T14:58:08.095Z,3.38
2023-05-20T15:00:36.318Z,3.10
2023-05-20T15:03:04.582Z,3.13
2023-05-20T15:05:32.746Z,3.45
2023-05-20T15:08:02.529Z,3.13
2023-05-20T15:10:30.695Z,3.22
2023-05-20T15:12:58.631Z,2.97
2023-05-20T15:15:26.670Z,3.55
2023-05-20T15:17:55.245Z,8.15
2023-05-20T15:20:23.376Z,3.00
2023-05-20T15:22:52.056Z,3.38
2023-05-20T15:25:21.982Z,3.10
2023-05-20T15:27:50.117Z,3.20
2023-05-20T15:30:18.390Z,3.13
2023-05-20T15:32:46.656Z,2.80
2023-05-20T15:35:14.749Z,3.58
2023-05-20T15:37:42.868Z,3.20
2023-05-20T15:40:11.980Z,3.40
2023-05-20T15:42:42.271Z,4.35
2023-05-20T15:45:10.920Z,4.65
2023-05-20T15:47:40.682Z,5.18
2023-05-20T15:50:11.214Z,4.00
2023-05-20T15:52:39.592Z,5.10
2023-05-20T15:55:09.026Z,3.95
2023-05-20T15:57:36.921Z,8.13
2023-05-20T16:00:10.239Z,21.55
2023-05-20T16:02:38.435Z,13.18
2023-05-20T16:05:07.919Z,11.57
2023-05-20T16:07:35.952Z,13.43
2023-05-20T16:10:03.934Z,23.33
2023-05-20T16:12:31.905Z,14.52
2023-05-20T16:15:00.013Z,22.17
2023-05-20T16:17:29.571Z,7.57
2023-05-20T16:19:57.652Z,7.75
2023-05-20T16:22:25.766Z,5.95
2023-05-20T16:24:53.774Z,11.82
2023-05-20T16:27:21.757Z,7.57
2023-05-20T16:29:51.339Z,8.05
2023-05-20T16:32:20.178Z,6.28
2023-05-20T16:34:49.597Z,5.35
2023-05-20T16:37:17.983Z,3.90
2023-05-20T16:39:46.133Z,4.22
2023-05-20T16:42:14.046Z,4.00
2023-05-20T16:44:42.314Z,3.38
2023-05-20T16:47:10.693Z,3.42
2023-05-20T16:49:38.612Z,3.50
2023-05-20T16:52:08.510Z,3.25
2023-05-20T16:54:36.823Z,3.35
2023-05-20T16:57:05.189Z,3.00
2023-05-20T16:59:34.919Z,3.15
2023-05-20T17:02:02.858Z,3.55
2023-05-20T17:04:31.034Z,3.03
2023-05-20T17:07:01.623Z,3.17
2023-05-20T17:09:31.507Z,3.45
2023-05-20T17:11:59.516Z,3.33
2023-05-20T17:14:27.437Z,3.63
2023-05-20T17:16:55.510Z,3.72
2023-05-20T17:19:23.635Z,4.07
2023-05-20T17:21:51.803Z,4.45
2023-05-20T17:24:19.744Z,4.90
2023-05-20T17:26:49.601Z,7.07
2023-05-20T17:29:17.434Z,5.57
2023-05-20T17:31:45.873Z,3.63
2023-05-20T17:34:14.032Z,3.55
2023-05-20T17:36:42.038Z,3.78
2023-05-20T17:39:10.510Z,3.50
2023-05-20T17:41:38.567Z,3.47
2023-05-20T17:44:08.354Z,3.30
2023-05-20T17:46:36.514Z,3.67
2023-05-20T17:49:04.465Z,3.70
2023-05-20T17:51:32.741Z,3.80
2023-05-20T17:54:00.645Z,3.55
2023-05-20T17:56:28.874Z,3.60
2023-05-20T17:58:56.858Z,3.70
2023-05-20T18:01:26.922Z,3.47
2023-05-20T18:03:55.618Z,3.75
2023-05-20T18:06:26.348Z,3.90
2023-05-20T18:08:55.960Z,3.35
2023-05-20T18:11:27.055Z,3.58
2023-05-20T18:13:58.683Z,3.97
2023-05-20T18:16:28.782Z,3.72
2023-05-20T18:18:58.022Z,4.20
2023-05-20T18:21:26.398Z,3.60
2023-05-20T18:23:54.492Z,3.97
2023-05-20T18:26:22.638Z,4.00
2023-05-20T18:28:50.996Z,3.75
2023-05-20T18:31:19.124Z,3.85
2023-05-20T18:33:48.591Z,3.80
2023-05-20T18:36:16.720Z,4.07
2023-05-20T18:38:45.030Z,3.85
2023-05-20T18:41:13.104Z,4.10
2023-05-20T18:43:41.269Z,3.30
2023-05-20T18:46:09.371Z,3.58
2023-05-20T18:48:37.598Z,3.92
2023-05-20T18:51:06.981Z,3.70
2023-05-20T18:53:34.924Z,3.70
2023-05-20T18:56:03.523Z,4.00
2023-05-20T18:58:31.732Z,4.22
2023-05-20T19:00:59.733Z,4.13
2023-05-20T19:03:27.715Z,4.22
2023-05-20T19:05:55.781Z,3.92
2023-05-20T19:08:27.416Z,4.22
2023-05-20T19:10:55.350Z,4.18
2023-05-20T19:13:23.337Z,4.10
2023-05-20T19:15:51.299Z,4.43
2023-05-20T19:18:21.336Z,4.50
2023-05-20T19:20:49.528Z,4.50
2023-05-20T19:23:17.473Z,4.63
2023-05-20T19:25:46.892Z,4.25
2023-05-20T19:28:14.921Z,4.70
2023-05-20T19:30:43.005Z,4.10
2023-05-20T19:33:11.182Z,4.50
2023-05-20T19:35:39.206Z,4.47
2023-05-20T19:38:07.254Z,4.80
2023-05-20T19:40:36.245Z,4.57
2023-05-20T19:43:05.600Z,4.60
2023-05-20T19:45:35.480Z,4.85
2023-05-20T19:48:04.288Z,4.72
2023-05-20T19:50:33.059Z,4.63
2023-05-20T19:53:03.278Z,4.30
2023-05-20T19:55:31.274Z,4.82
2023-05-20T19:57:59.245Z,4.50
2023-05-20T20:00:28.595Z,4.70
2023-05-20T20:02:58.153Z,5.10
2023-05-20T20:05:27.047Z,4.70
2023-05-20T20:07:55.168Z,5.03
2023-05-20T20:10:23.446Z,4.70
2023-05-20T20:12:51.550Z,4.78
2023-05-20T20:15:20.564Z,4.45
2023-05-20T20:17:52.257Z,5.97
2023-05-20T20:20:20.665Z,5.07
2023-05-20T20:22:48.628Z,5.18
2023-05-20T20:25:16.782Z,5.20
2023-05-20T20:27:44.867Z,4.95
2023-05-20T20:30:14.150Z,4.90
2023-05-20T20:32:42.639Z,5.03
2023-05-20T20:35:12.238Z,5.38
2023-05-20T20:37:40.252Z,5.30
2023-05-20T20:40:13.236Z,5.20
2023-05-20T20:42:44.799Z,5.22
2023-05-20T20:45:13.164Z,5.53
2023-05-20T20:47:41.581Z,5.18
2023-05-20T20:50:11.463Z,5.63
2023-05-20T20:52:42.633Z,5.38
2023-05-20T20:55:11.515Z,5.60
2023-05-20T20:57:41.947Z,5.47
2023-05-20T21:00:16.515Z,5.63
2023-05-20T21:02:44.880Z,5.35
2023-05-20T21:05:14.590Z,5.65
2023-05-20T21:07:46.451Z,5.70
2023-05-20T21:10:14.838Z,6.18
2023-05-20T21:12:43.087Z,6.32
2023-05-20T21:15:12.607Z,6.47
2023-05-20T21:17:40.918Z,6.47
2023-05-20T21:20:10.067Z,6.15
2023-05-20T21:22:37.979Z,6.18
2023-05-20T21:25:08.895Z,6.38
2023-05-20T21:27:36.942Z,6.15
2023-05-20T21:30:06.031Z,6.25
2023-05-20T21:32:34.038Z,6.10
2023-05-20T21:35:02.148Z,6.10
2023-05-20T21:37:30.015Z,7.00
2023-05-20T21:39:58.024Z,6.32
2023-05-20T21:42:27.254Z,6.10
2023-05-20T21:44:55.528Z,6.70
2023-05-20T21:47:23.617Z,6.32
2023-05-20T21:49:51.598Z,6.75
2023-05-20T21:52:19.556Z,6.97
2023-05-20T21:54:47.578Z,6.68
2023-05-20T21:57:15.661Z,6.68
2023-05-20T21:59:44.933Z,6.82
2023-05-20T22:02:12.953Z,6.78
2023-05-20T22:04:40.836Z,6.57
2023-05-20T22:07:08.756Z,6.85
2023-05-20T22:09:36.806Z,6.25
2023-05-20T22:12:05.174Z,7.32
2023-05-20T22:14:33.733Z,6.60
2023-05-20T22:17:03.233Z,7.25
2023-05-20T22:19:31.306Z,7.45
2023-05-20T22:21:59.489Z,6.75
2023-05-20T22:24:27.719Z,7.15
2023-05-20T22:26:55.596Z,7.70
2023-05-20T22:29:23.648Z,7.68
2023-05-20T22:31:51.959Z,8.43
2023-05-20T22:34:21.233Z,8.00
2023-05-20T22:36:49.150Z,8.45
2023-05-20T22:39:17.007Z,8.63
2023-05-20T22:41:44.954Z,8.70
2023-05-20T22:44:12.832Z,8.20
2023-05-20T22:46:40.818Z,8.38
2023-05-20T22:49:10.441Z,7.80
2023-05-20T22:51:39.829Z,7.95
2023-05-20T22:54:08.623Z,8.23
2023-05-20T22:56:36.626Z,7.82
2023-05-20T22:59:04.606Z,7.82
2023-05-20T23:01:32.652Z,8.18
2023-05-20T23:04:00.589Z,7.43
2023-05-20T23:06:28.488Z,7.78
2023-05-20T23:08:57.838Z,7.90
2023-05-20T23:11:26.492Z,7.97
2023-05-20T23:13:54.473Z,8.38
2023-05-20T23:16:22.436Z,8.43
2023-05-20T23:18:50.634Z,8.52
2023-05-20T23:21:19.325Z,7.78
2023-05-20T23:23:47.358Z,8.68
2023-05-20T23:26:16.715Z,8.30
2023-05-20T23:28:44.648Z,7.97
2023-05-20T23:31:14.700Z,8.27
2023-05-20T23:33:42.850Z,8.65
2023-05-20T23:36:12.407Z,8.20
2023-05-20T23:38:40.540Z,8.50
2023-05-20T23:41:08.616Z,9.13
2023-05-20T23:43:37.918Z,8.98
2023-05-20T23:46:06.031Z,8.95
2023-05-20T23:48:33.872Z,8.90
2023-05-20T23:51:01.773Z,9.13
2023-05-20T23:53:30.015Z,9.55
2023-05-20T23:55:57.969Z,9.70
2023-05-20T23:58:26.056Z,9.45
